sensor_id;sensor_type;location;lat;lon;timestamp;pressure;altitude;pressure_sealevel;temperature;humidity
50650;BME280;36621;60.058;30.346;2022-09-13T00:03:52;101286.00;;;14.31;59.14
50650;BME280;36621;60.058;30.346;2022-09-13T00:11:25;101270.88;;;14.34;59.42
50650;BME280;36621;60.058;30.346;2022-09-13T00:18:58;101269.25;;;14.33;58.59
50650;BME280;36621;60.058;30.346;2022-09-13T00:26:30;101270.66;;;14.30;59.11
50650;BME280;36621;60.058;30.346;2022-09-13T00:34:04;101267.06;;;14.30;59.09
50650;BME280;36621;60.058;30.346;2022-09-13T00:41:36;101260.75;;;14.29;59.39
50650;BME280;36621;60.058;30.346;2022-09-13T00:49:11;101263.78;;;14.28;59.46
50650;BME280;36621;60.058;30.346;2022-09-13T00:56:45;101259.19;;;14.18;59.32
50650;BME280;36621;60.058;30.346;2022-09-13T01:04:20;101259.22;;;14.13;59.69
50650;BME280;36621;60.058;30.346;2022-09-13T01:11:54;101258.09;;;14.14;59.26
50650;BME280;36621;60.058;30.346;2022-09-13T01:19:35;101261.41;;;14.11;59.76
50650;BME280;36621;60.058;30.346;2022-09-13T01:27:14;101253.75;;;14.07;59.39
50650;BME280;36621;60.058;30.346;2022-09-13T01:34:53;101258.16;;;14.03;59.55
50650;BME280;36621;60.058;30.346;2022-09-13T01:42:30;101254.91;;;14.01;60.02
50650;BME280;36621;60.058;30.346;2022-09-13T01:50:20;101251.59;;;13.99;59.64
50650;BME280;36621;60.058;30.346;2022-09-13T01:58:22;101245.53;;;14.02;60.54
50650;BME280;36621;60.058;30.346;2022-09-13T02:06:07;101245.00;;;14.05;60.28
50650;BME280;36621;60.058;30.346;2022-09-13T02:13:59;101236.78;;;14.00;60.09
50650;BME280;36621;60.058;30.346;2022-09-13T02:21:55;101224.19;;;13.94;59.54
50650;BME280;36621;60.058;30.346;2022-09-13T02:29:39;101218.16;;;13.92;59.80
50650;BME280;36621;60.058;30.346;2022-09-13T02:37:13;101223.63;;;13.92;60.46
50650;BME280;36621;60.058;30.346;2022-09-13T02:44:46;101212.09;;;13.95;60.12
50650;BME280;36621;60.058;30.346;2022-09-13T02:52:23;101220.38;;;13.90;60.63
50650;BME280;36621;60.058;30.346;2022-09-13T02:59:57;101220.94;;;13.87;60.30
50650;BME280;36621;60.058;30.346;2022-09-13T03:07:30;101227.81;;;13.79;60.98
50650;BME280;36621;60.058;30.346;2022-09-13T03:15:04;101226.22;;;13.73;60.40
50650;BME280;36621;60.058;30.346;2022-09-13T03:30:28;101218.31;;;13.66;61.08
50650;BME280;36621;60.058;30.346;2022-09-13T03:38:02;101207.28;;;13.71;61.05
50650;BME280;36621;60.058;30.346;2022-09-13T03:45:38;101213.59;;;13.72;61.49
50650;BME280;36621;60.058;30.346;2022-09-13T03:53:14;101211.63;;;13.83;61.32
50650;BME280;36621;60.058;30.346;2022-09-13T04:00:51;101210.19;;;13.90;60.77
50650;BME280;36621;60.058;30.346;2022-09-13T04:08:26;101209.31;;;14.00;61.37
50650;BME280;36621;60.058;30.346;2022-09-13T04:16:08;101209.81;;;14.07;60.65
50650;BME280;36621;60.058;30.346;2022-09-13T04:23:57;101208.72;;;14.09;61.00
50650;BME280;36621;60.058;30.346;2022-09-13T04:31:53;101209.03;;;14.07;61.13
50650;BME280;36621;60.058;30.346;2022-09-13T04:39:33;101203.75;;;14.11;61.74
50650;BME280;36621;60.058;30.346;2022-09-13T04:47:09;101187.28;;;14.11;61.20
50650;BME280;36621;60.058;30.346;2022-09-13T04:54:42;101191.91;;;14.20;61.12
50650;BME280;36621;60.058;30.346;2022-09-13T05:02:16;101188.69;;;14.42;60.76
50650;BME280;36621;60.058;30.346;2022-09-13T05:09:49;101198.97;;;14.61;60.65
50650;BME280;36621;60.058;30.346;2022-09-13T05:17:22;101194.66;;;14.84;60.33
50650;BME280;36621;60.058;30.346;2022-09-13T05:24:59;101188.66;;;15.06;60.41
50650;BME280;36621;60.058;30.346;2022-09-13T05:32:39;101190.94;;;15.23;60.41
50650;BME280;36621;60.058;30.346;2022-09-13T05:40:16;101182.69;;;15.48;59.78
50650;BME280;36621;60.058;30.346;2022-09-13T05:48:00;101176.75;;;15.59;60.04
50650;BME280;36621;60.058;30.346;2022-09-13T05:55:42;101169.09;;;15.75;58.99
50650;BME280;36621;60.058;30.346;2022-09-13T06:03:23;101161.75;;;15.90;58.49
50650;BME280;36621;60.058;30.346;2022-09-13T06:10:57;101156.97;;;16.14;58.23
50650;BME280;36621;60.058;30.346;2022-09-13T06:18:32;101160.91;;;16.27;57.57
50650;BME280;36621;60.058;30.346;2022-09-13T16:19:25;100787.13;;;17.59;47.39
50650;BME280;36621;60.058;30.346;2022-09-13T16:26:58;100797.03;;;17.60;47.57
50650;BME280;36621;60.058;30.346;2022-09-13T16:34:30;100795.84;;;17.52;47.55
50650;BME280;36621;60.058;30.346;2022-09-13T16:42:02;100789.69;;;17.46;48.21
50650;BME280;36621;60.058;30.346;2022-09-13T16:49:36;100787.41;;;17.48;47.89
50650;BME280;36621;60.058;30.346;2022-09-13T16:57:07;100790.66;;;17.50;47.81
50650;BME280;36621;60.058;30.346;2022-09-13T17:04:41;100778.13;;;17.44;48.05
50650;BME280;36621;60.058;30.346;2022-09-13T17:12:13;100779.53;;;17.33;48.05
50650;BME280;36621;60.058;30.346;2022-09-13T17:19:46;100772.31;;;17.14;48.21
50650;BME280;36621;60.058;30.346;2022-09-13T17:27:18;100781.00;;;16.99;48.45
50650;BME280;36621;60.058;30.346;2022-09-13T17:34:50;100771.03;;;16.89;49.12
50650;BME280;36621;60.058;30.346;2022-09-13T17:42:22;100767.25;;;16.85;49.40
50650;BME280;36621;60.058;30.346;2022-09-13T17:49:55;100768.88;;;16.86;49.62
50650;BME280;36621;60.058;30.346;2022-09-13T17:57:26;100740.63;;;16.80;49.76
50650;BME280;36621;60.058;30.346;2022-09-13T18:04:59;100737.53;;;16.82;49.62
50650;BME280;36621;60.058;30.346;2022-09-13T18:12:34;100736.00;;;16.67;50.15
50650;BME280;36621;60.058;30.346;2022-09-13T18:20:09;100738.19;;;16.56;50.63
50650;BME280;36621;60.058;30.346;2022-09-13T18:44:26;100715.56;;;16.45;50.88
50650;BME280;36621;60.058;30.346;2022-09-13T18:52:00;100711.81;;;16.41;51.09
50650;BME280;36621;60.058;30.346;2022-09-13T18:59:32;100702.38;;;16.34;51.14
50650;BME280;36621;60.058;30.346;2022-09-13T19:07:05;100692.88;;;16.26;51.53
50650;BME280;36621;60.058;30.346;2022-09-13T19:14:38;100691.41;;;16.20;51.50
50650;BME280;36621;60.058;30.346;2022-09-13T19:22:10;100684.75;;;16.21;51.99
50650;BME280;36621;60.058;30.346;2022-09-13T19:29:43;100669.59;;;16.09;52.43
50650;BME280;36621;60.058;30.346;2022-09-13T19:37:14;100667.59;;;16.01;52.23
50650;BME280;36621;60.058;30.346;2022-09-13T19:44:47;100668.06;;;16.03;52.58
50650;BME280;36621;60.058;30.346;2022-09-13T19:52:19;100656.06;;;15.99;52.87
50650;BME280;36621;60.058;30.346;2022-09-13T19:59:52;100650.56;;;15.99;53.15
50650;BME280;36621;60.058;30.346;2022-09-13T20:07:25;100644.38;;;15.93;52.79
50650;BME280;36621;60.058;30.346;2022-09-13T20:14:57;100646.66;;;16.00;52.92
50650;BME280;36621;60.058;30.346;2022-09-13T20:22:29;100633.66;;;15.92;53.18
50650;BME280;36621;60.058;30.346;2022-09-13T20:30:01;100622.66;;;15.92;53.19
50650;BME280;36621;60.058;30.346;2022-09-13T20:37:34;100617.25;;;15.87;53.49
50650;BME280;36621;60.058;30.346;2022-09-13T20:45:07;100610.94;;;15.86;53.50
50650;BME280;36621;60.058;30.346;2022-09-13T20:52:39;100600.88;;;15.82;53.87
50650;BME280;36621;60.058;30.346;2022-09-13T21:00:12;100594.97;;;15.74;53.80
50650;BME280;36621;60.058;30.346;2022-09-13T21:07:44;100576.44;;;15.66;53.91
50650;BME280;36621;60.058;30.346;2022-09-13T21:15:34;100570.72;;;15.62;54.10
50650;BME280;36621;60.058;30.346;2022-09-13T21:23:08;100566.16;;;15.58;54.29
50650;BME280;36621;60.058;30.346;2022-09-13T21:30:40;100569.69;;;15.58;54.21
50650;BME280;36621;60.058;30.346;2022-09-13T21:38:12;100558.03;;;15.53;54.16
50650;BME280;36621;60.058;30.346;2022-09-13T21:45:44;100546.81;;;15.49;54.14
50650;BME280;36621;60.058;30.346;2022-09-13T21:53:16;100539.69;;;15.48;53.98
50650;BME280;36621;60.058;30.346;2022-09-13T22:00:49;100534.63;;;15.41;54.20
50650;BME280;36621;60.058;30.346;2022-09-13T22:08:21;100525.03;;;15.39;54.07
50650;BME280;36621;60.058;30.346;2022-09-13T22:15:54;100521.09;;;15.31;53.79
50650;BME280;36621;60.058;30.346;2022-09-13T22:23:27;100507.28;;;15.22;54.01
50650;BME280;36621;60.058;30.346;2022-09-13T22:31:03;100506.97;;;15.24;53.99
50650;BME280;36621;60.058;30.346;2022-09-13T22:38:36;100500.63;;;15.23;54.12
50650;BME280;36621;60.058;30.346;2022-09-13T22:46:09;100495.97;;;15.24;53.75
50650;BME280;36621;60.058;30.346;2022-09-13T22:53:42;100485.28;;;15.22;53.54
50650;BME280;36621;60.058;30.346;2022-09-13T23:01:15;100480.97;;;15.30;53.33
50650;BME280;36621;60.058;30.346;2022-09-13T23:08:48;100471.69;;;15.26;53.76
50650;BME280;36621;60.058;30.346;2022-09-13T23:16:22;100450.44;;;15.18;53.56
50650;BME280;36621;60.058;30.346;2022-09-13T23:23:54;100441.69;;;15.16;53.83
50650;BME280;36621;60.058;30.346;2022-09-13T23:31:27;100434.44;;;15.20;53.52
50650;BME280;36621;60.058;30.346;2022-09-13T23:38:59;100433.56;;;15.10;53.95
50650;BME280;36621;60.058;30.346;2022-09-13T23:46:33;100423.09;;;14.99;53.51
50650;BME280;36621;60.058;30.346;2022-09-13T23:54:05;100412.00;;;15.04;54.03
